sensor_id;sensor_type;location;lat;lon;timestamp;temperature;humidity
83120;SHT31;73001;51.784;4.660;2024-03-23T00:55:34;10.00;75.80
83120;SHT31;73001;51.784;4.660;2024-03-23T00:57:59;10.01;75.56
83120;SHT31;73001;51.784;4.660;2024-03-23T01:00:25;9.97;75.94
83120;SHT31;73001;51.784;4.660;2024-03-23T01:02:50;9.98;76.07
83120;SHT31;73001;51.784;4.660;2024-03-23T01:05:15;10.03;75.98
83120;SHT31;73001;51.784;4.660;2024-03-23T01:07:41;9.98;75.98
83120;SHT31;73001;51.784;4.660;2024-03-23T01:10:07;9.98;76.31
83120;SHT31;73001;51.784;4.660;2024-03-23T01:12:32;9.97;76.60
83120;SHT31;73001;51.784;4.660;2024-03-23T01:14:58;9.96;76.57
83120;SHT31;73001;51.784;4.660;2024-03-23T01:17:23;9.89;76.62
83120;SHT31;73001;51.784;4.660;2024-03-23T01:19:49;9.90;76.95
83120;SHT31;73001;51.784;4.660;2024-03-23T01:22:14;9.93;76.88
83120;SHT31;73001;51.784;4.660;2024-03-23T01:24:40;9.93;76.65
83120;SHT31;73001;51.784;4.660;2024-03-23T01:27:05;9.89;76.66
83120;SHT31;73001;51.784;4.660;2024-03-23T01:29:31;9.87;76.37
83120;SHT31;73001;51.784;4.660;2024-03-23T01:31:56;9.83;76.20
83120;SHT31;73001;51.784;4.660;2024-03-23T01:34:22;9.83;76.19
83120;SHT31;73001;51.784;4.660;2024-03-23T01:36:47;9.80;76.22
83120;SHT31;73001;51.784;4.660;2024-03-23T01:39:13;9.83;76.53
83120;SHT31;73001;51.784;4.660;2024-03-23T01:41:40;9.80;76.67
83120;SHT31;73001;51.784;4.660;2024-03-23T01:44:08;9.80;76.49
83120;SHT31;73001;51.784;4.660;2024-03-23T01:46:34;9.80;76.59
83120;SHT31;73001;51.784;4.660;2024-03-23T01:49:00;9.77;76.11
83120;SHT31;73001;51.784;4.660;2024-03-23T01:51:27;9.69;76.08
83120;SHT31;73001;51.784;4.660;2024-03-23T01:53:54;9.60;76.16
83120;SHT31;73001;51.784;4.660;2024-03-23T01:56:20;9.53;76.24
83120;SHT31;73001;51.784;4.660;2024-03-23T01:58:45;9.53;76.29
83120;SHT31;73001;51.784;4.660;2024-03-23T02:01:11;9.48;76.42
83120;SHT31;73001;51.784;4.660;2024-03-23T02:03:37;9.40;76.65
83120;SHT31;73001;51.784;4.660;2024-03-23T02:06:02;9.31;76.49
83120;SHT31;73001;51.784;4.660;2024-03-23T02:08:30;9.29;76.86
83120;SHT31;73001;51.784;4.660;2024-03-23T02:10:56;9.26;76.95
83120;SHT31;73001;51.784;4.660;2024-03-23T02:13:21;9.19;76.85
83120;SHT31;73001;51.784;4.660;2024-03-23T02:15:47;9.08;76.07
83120;SHT31;73001;51.784;4.660;2024-03-23T02:18:13;8.95;76.35
83120;SHT31;73001;51.784;4.660;2024-03-23T02:20:39;8.94;76.71
83120;SHT31;73001;51.784;4.660;2024-03-23T02:23:05;8.91;77.16
83120;SHT31;73001;51.784;4.660;2024-03-23T02:25:33;8.88;77.41
83120;SHT31;73001;51.784;4.660;2024-03-23T02:27:59;8.85;77.37
83120;SHT31;73001;51.784;4.660;2024-03-23T02:30:25;8.84;77.54
83120;SHT31;73001;51.784;4.660;2024-03-23T02:32:51;8.78;77.72
83120;SHT31;73001;51.784;4.660;2024-03-23T02:35:17;8.75;77.46
83120;SHT31;73001;51.784;4.660;2024-03-23T02:37:42;8.74;77.31
83120;SHT31;73001;51.784;4.660;2024-03-23T02:40:08;8.66;76.54
83120;SHT31;73001;51.784;4.660;2024-03-23T02:42:34;8.61;76.97
83120;SHT31;73001;51.784;4.660;2024-03-23T02:44:59;8.60;77.01
83120;SHT31;73001;51.784;4.660;2024-03-23T02:47:25;8.57;76.96
83120;SHT31;73001;51.784;4.660;2024-03-23T02:49:50;8.52;76.71
83120;SHT31;73001;51.784;4.660;2024-03-23T02:52:16;8.46;76.94
83120;SHT31;73001;51.784;4.660;2024-03-23T02:54:41;8.43;77.24
83120;SHT31;73001;51.784;4.660;2024-03-23T02:57:10;8.35;76.98
83120;SHT31;73001;51.784;4.660;2024-03-23T02:59:36;8.23;76.49
83120;SHT31;73001;51.784;4.660;2024-03-23T03:02:01;8.19;76.65
83120;SHT31;73001;51.784;4.660;2024-03-23T03:04:27;8.12;76.70
83120;SHT31;73001;51.784;4.660;2024-03-23T03:06:52;8.09;76.76
83120;SHT31;73001;51.784;4.660;2024-03-23T03:09:18;8.01;76.64
83120;SHT31;73001;51.784;4.660;2024-03-23T03:11:43;7.95;76.79
83120;SHT31;73001;51.784;4.660;2024-03-23T03:14:08;7.98;76.93
83120;SHT31;73001;51.784;4.660;2024-03-23T03:16:34;7.91;77.00
83120;SHT31;73001;51.784;4.660;2024-03-23T03:18:59;7.82;77.05
83120;SHT31;73001;51.784;4.660;2024-03-23T03:21:26;7.82;77.00
83120;SHT31;73001;51.784;4.660;2024-03-23T03:23:52;7.79;77.13
83120;SHT31;73001;51.784;4.660;2024-03-23T03:26:17;7.78;77.32
83120;SHT31;73001;51.784;4.660;2024-03-23T03:28:43;7.81;77.37
83120;SHT31;73001;51.784;4.660;2024-03-23T03:31:14;7.77;77.37
83120;SHT31;73001;51.784;4.660;2024-03-23T03:33:39;7.77;77.47
83120;SHT31;73001;51.784;4.660;2024-03-23T03:36:05;7.75;77.31
83120;SHT31;73001;51.784;4.660;2024-03-23T03:38:30;7.71;77.47
83120;SHT31;73001;51.784;4.660;2024-03-23T03:40:56;7.70;77.34
83120;SHT31;73001;51.784;4.660;2024-03-23T03:43:23;7.71;77.58
83120;SHT31;73001;51.784;4.660;2024-03-23T03:45:52;7.72;77.70
83120;SHT31;73001;51.784;4.660;2024-03-23T03:48:18;7.74;77.74
83120;SHT31;73001;51.784;4.660;2024-03-23T03:50:43;7.68;77.44
83120;SHT31;73001;51.784;4.660;2024-03-23T03:53:08;7.64;77.04
83120;SHT31;73001;51.784;4.660;2024-03-23T03:55:34;7.67;77.40
83120;SHT31;73001;51.784;4.660;2024-03-23T03:57:59;7.64;77.39
83120;SHT31;73001;51.784;4.660;2024-03-23T04:00:25;7.61;77.17
83120;SHT31;73001;51.784;4.660;2024-03-23T04:02:50;7.54;77.14
83120;SHT31;73001;51.784;4.660;2024-03-23T04:05:16;7.51;77.05
83120;SHT31;73001;51.784;4.660;2024-03-23T04:07:42;7.51;77.26
83120;SHT31;73001;51.784;4.660;2024-03-23T04:10:07;7.54;77.65
83120;SHT31;73001;51.784;4.660;2024-03-23T04:12:34;7.53;77.62
83120;SHT31;73001;51.784;4.660;2024-03-23T04:14:59;7.55;77.49
83120;SHT31;73001;51.784;4.660;2024-03-23T04:17:26;7.53;77.22
83120;SHT31;73001;51.784;4.660;2024-03-23T04:19:55;7.50;77.33
83120;SHT31;73001;51.784;4.660;2024-03-23T04:22:21;7.46;77.13
83120;SHT31;73001;51.784;4.660;2024-03-23T04:24:46;7.44;76.87
83120;SHT31;73001;51.784;4.660;2024-03-23T04:27:12;7.41;76.78
83120;SHT31;73001;51.784;4.660;2024-03-23T04:29:37;7.40;76.62
83120;SHT31;73001;51.784;4.660;2024-03-23T04:32:03;7.35;76.78
83120;SHT31;73001;51.784;4.660;2024-03-23T04:34:29;7.37;76.80
83120;SHT31;73001;51.784;4.660;2024-03-23T04:36:55;7.38;77.05
83120;SHT31;73001;51.784;4.660;2024-03-23T04:39:20;7.37;76.72
83120;SHT31;73001;51.784;4.660;2024-03-23T04:41:46;7.38;76.81
83120;SHT31;73001;51.784;4.660;2024-03-23T04:44:11;7.38;76.71
83120;SHT31;73001;51.784;4.660;2024-03-23T04:46:36;7.41;76.62
83120;SHT31;73001;51.784;4.660;2024-03-23T04:49:02;7.41;76.71
83120;SHT31;73001;51.784;4.660;2024-03-23T04:51:35;7.38;76.62
83120;SHT31;73001;51.784;4.660;2024-03-23T04:54:02;7.43;76.76
83120;SHT31;73001;51.784;4.660;2024-03-23T04:56:28;7.44;76.49
83120;SHT31;73001;51.784;4.660;2024-03-23T04:58:53;7.44;76.54
83120;SHT31;73001;51.784;4.660;2024-03-23T05:01:19;7.47;76.96
83120;SHT31;73001;51.784;4.660;2024-03-23T05:03:45;7.50;76.91
83120;SHT31;73001;51.784;4.660;2024-03-23T05:06:10;7.54;76.71
83120;SHT31;73001;51.784;4.660;2024-03-23T05:08:35;7.54;76.46
83120;SHT31;73001;51.784;4.660;2024-03-23T05:11:01;7.58;76.45
83120;SHT31;73001;51.784;4.660;2024-03-23T05:13:26;7.58;76.64
83120;SHT31;73001;51.784;4.660;2024-03-23T05:15:55;7.61;76.70
83120;SHT31;73001;51.784;4.660;2024-03-23T05:18:21;7.65;76.83
83120;SHT31;73001;51.784;4.660;2024-03-23T05:20:47;7.68;76.81
83120;SHT31;73001;51.784;4.660;2024-03-23T05:23:12;7.75;76.89
83120;SHT31;73001;51.784;4.660;2024-03-23T05:25:38;7.79;76.68
83120;SHT31;73001;51.784;4.660;2024-03-23T05:28:03;7.82;76.56
83120;SHT31;73001;51.784;4.660;2024-03-23T05:30:29;7.86;76.22
83120;SHT31;73001;51.784;4.660;2024-03-23T05:32:54;7.88;76.52
83120;SHT31;73001;51.784;4.660;2024-03-23T05:35:20;7.89;76.51
83120;SHT31;73001;51.784;4.660;2024-03-23T05:37:46;7.88;76.71
83120;SHT31;73001;51.784;4.660;2024-03-23T05:40:11;7.96;76.74
83120;SHT31;73001;51.784;4.660;2024-03-23T05:42:38;7.99;76.50
83120;SHT31;73001;51.784;4.660;2024-03-23T05:45:03;8.02;76.59
83120;SHT31;73001;51.784;4.660;2024-03-23T05:47:31;8.01;76.68
83120;SHT31;73001;51.784;4.660;2024-03-23T05:49:57;8.06;76.43
83120;SHT31;73001;51.784;4.660;2024-03-23T05:52:22;8.10;76.54
83120;SHT31;73001;51.784;4.660;2024-03-23T05:54:51;8.12;76.42
83120;SHT31;73001;51.784;4.660;2024-03-23T05:57:16;8.15;76.55
83120;SHT31;73001;51.784;4.660;2024-03-23T05:59:42;8.15;76.28
83120;SHT31;73001;51.784;4.660;2024-03-23T06:02:07;8.16;76.32
83120;SHT31;73001;51.784;4.660;2024-03-23T06:04:35;8.16;76.33
83120;SHT31;73001;51.784;4.660;2024-03-23T06:07:01;8.21;76.18
83120;SHT31;73001;51.784;4.660;2024-03-23T06:09:26;8.23;76.54
83120;SHT31;73001;51.784;4.660;2024-03-23T06:11:51;8.33;76.28
83120;SHT31;73001;51.784;4.660;2024-03-23T06:14:17;8.33;76.35
83120;SHT31;73001;51.784;4.660;2024-03-23T06:16:42;8.44;76.55
83120;SHT31;73001;51.784;4.660;2024-03-23T06:19:08;8.54;76.61
83120;SHT31;73001;51.784;4.660;2024-03-23T06:21:33;8.59;76.23
83120;SHT31;73001;51.784;4.660;2024-03-23T06:23:59;8.67;76.10
83120;SHT31;73001;51.784;4.660;2024-03-23T06:26:25;8.71;75.82
83120;SHT31;73001;51.784;4.660;2024-03-23T06:28:50;8.75;75.77
83120;SHT31;73001;51.784;4.660;2024-03-23T06:31:16;8.78;75.48
83120;SHT31;73001;51.784;4.660;2024-03-23T06:33:41;8.81;75.25
83120;SHT31;73001;51.784;4.660;2024-03-23T06:36:10;8.75;75.37
83120;SHT31;73001;51.784;4.660;2024-03-23T06:38:36;8.81;75.21
83120;SHT31;73001;51.784;4.660;2024-03-23T06:41:03;8.81;74.55
83120;SHT31;73001;51.784;4.660;2024-03-23T06:43:29;8.91;74.63
83120;SHT31;73001;51.784;4.660;2024-03-23T06:45:55;8.95;74.35
83120;SHT31;73001;51.784;4.660;2024-03-23T06:48:21;9.05;74.80
83120;SHT31;73001;51.784;4.660;2024-03-23T06:50:47;9.18;74.62
83120;SHT31;73001;51.784;4.660;2024-03-23T06:53:13;9.32;74.51
83120;SHT31;73001;51.784;4.660;2024-03-23T06:55:39;9.36;73.92
83120;SHT31;73001;51.784;4.660;2024-03-23T06:58:04;9.35;73.54
83120;SHT31;73001;51.784;4.660;2024-03-23T07:00:30;9.36;73.50
83120;SHT31;73001;51.784;4.660;2024-03-23T07:02:57;9.40;73.71
83120;SHT31;73001;51.784;4.660;2024-03-23T07:05:23;9.46;73.69
83120;SHT31;73001;51.784;4.660;2024-03-23T07:07:48;9.50;73.98
83120;SHT31;73001;51.784;4.660;2024-03-23T07:10:13;9.55;73.53
83120;SHT31;73001;51.784;4.660;2024-03-23T07:12:39;9.53;73.29
83120;SHT31;73001;51.784;4.660;2024-03-23T07:15:05;9.50;72.49
83120;SHT31;73001;51.784;4.660;2024-03-23T07:17:30;9.52;73.11
83120;SHT31;73001;51.784;4.660;2024-03-23T07:19:57;9.57;72.95
83120;SHT31;73001;51.784;4.660;2024-03-23T07:22:23;9.60;72.78
83120;SHT31;73001;51.784;4.660;2024-03-23T07:24:49;9.65;72.63
83120;SHT31;73001;51.784;4.660;2024-03-23T07:27:14;9.73;72.35
83120;SHT31;73001;51.784;4.660;2024-03-23T07:29:40;9.91;72.55
83120;SHT31;73001;51.784;4.660;2024-03-23T07:32:05;9.97;71.45
83120;SHT31;73001;51.784;4.660;2024-03-23T07:34:31;10.08;71.32
83120;SHT31;73001;51.784;4.660;2024-03-23T07:36:56;10.24;70.31
83120;SHT31;73001;51.784;4.660;2024-03-23T07:39:22;10.51;69.48
83120;SHT31;73001;51.784;4.660;2024-03-23T07:41:47;10.85;69.07
83120;SHT31;73001;51.784;4.660;2024-03-23T07:44:13;10.93;68.37
83120;SHT31;73001;51.784;4.660;2024-03-23T07:46:38;10.95;68.02
83120;SHT31;73001;51.784;4.660;2024-03-23T07:49:07;10.88;67.60
83120;SHT31;73001;51.784;4.660;2024-03-23T07:51:32;10.85;67.61
83120;SHT31;73001;51.784;4.660;2024-03-23T07:53:59;10.68;66.93
83120;SHT31;73001;51.784;4.660;2024-03-23T07:56:24;10.67;67.64
83120;SHT31;73001;51.784;4.660;2024-03-23T07:58:49;10.54;67.09
83120;SHT31;73001;51.784;4.660;2024-03-23T08:01:16;10.34;67.35
83120;SHT31;73001;51.784;4.660;2024-03-23T08:03:43;10.24;67.25
83120;SHT31;73001;51.784;4.660;2024-03-23T08:06:13;10.20;67.22
83120;SHT31;73001;51.784;4.660;2024-03-23T08:08:43;10.67;66.53
83120;SHT31;73001;51.784;4.660;2024-03-23T08:11:08;10.85;65.34
83120;SHT31;73001;51.784;4.660;2024-03-23T08:13:35;10.78;66.59
83120;SHT31;73001;51.784;4.660;2024-03-23T08:16:02;10.78;66.50
83120;SHT31;73001;51.784;4.660;2024-03-23T08:18:29;11.12;66.07
83120;SHT31;73001;51.784;4.660;2024-03-23T08:21:02;11.98;63.42
83120;SHT31;73001;51.784;4.660;2024-03-23T08:23:29;12.77;62.39
83120;SHT31;73001;51.784;4.660;2024-03-23T08:25:58;13.87;59.05
83120;SHT31;73001;51.784;4.660;2024-03-23T08:28:25;14.68;56.66
83120;SHT31;73001;51.784;4.660;2024-03-23T08:30:51;15.45;54.79
83120;SHT31;73001;51.784;4.660;2024-03-23T08:33:17;16.29;51.27
83120;SHT31;73001;51.784;4.660;2024-03-23T08:35:42;16.90;50.11
83120;SHT31;73001;51.784;4.660;2024-03-23T08:38:07;17.43;48.89
83120;SHT31;73001;51.784;4.660;2024-03-23T08:40:33;18.25;48.18
83120;SHT31;73001;51.784;4.660;2024-03-23T08:42:58;18.83;46.17
83120;SHT31;73001;51.784;4.660;2024-03-23T08:45:25;18.70;45.99
83120;SHT31;73001;51.784;4.660;2024-03-23T08:47:51;18.55;45.44
83120;SHT31;73001;51.784;4.660;2024-03-23T08:50:17;18.53;46.69
83120;SHT31;73001;51.784;4.660;2024-03-23T08:52:42;17.31;48.28
83120;SHT31;73001;51.784;4.660;2024-03-23T08:55:08;16.41;50.43
83120;SHT31;73001;51.784;4.660;2024-03-23T08:57:35;15.71;52.54
83120;SHT31;73001;51.784;4.660;2024-03-23T09:00:02;15.05;53.83
83120;SHT31;73001;51.784;4.660;2024-03-23T09:02:27;14.47;54.28
83120;SHT31;73001;51.784;4.660;2024-03-23T09:04:53;14.22;53.83
83120;SHT31;73001;51.784;4.660;2024-03-23T09:07:18;15.02;53.35
83120;SHT31;73001;51.784;4.660;2024-03-23T09:09:44;16.62;49.69
83120;SHT31;73001;51.784;4.660;2024-03-23T09:12:09;17.87;46.26
83120;SHT31;73001;51.784;4.660;2024-03-23T09:14:34;17.92;46.18
83120;SHT31;73001;51.784;4.660;2024-03-23T09:17:00;17.77;46.43
83120;SHT31;73001;51.784;4.660;2024-03-23T09:19:29;18.12;46.44
83120;SHT31;73001;51.784;4.660;2024-03-23T09:21:55;17.94;46.33
83120;SHT31;73001;51.784;4.660;2024-03-23T09:24:20;18.56;44.50
83120;SHT31;73001;51.784;4.660;2024-03-23T09:26:46;17.29;47.21
83120;SHT31;73001;51.784;4.660;2024-03-23T09:29:12;16.32;46.82
83120;SHT31;73001;51.784;4.660;2024-03-23T09:31:37;17.38;46.28
83120;SHT31;73001;51.784;4.660;2024-03-23T09:34:04;18.45;44.80
83120;SHT31;73001;51.784;4.660;2024-03-23T09:36:29;17.95;44.56
83120;SHT31;73001;51.784;4.660;2024-03-23T09:38:54;16.83;46.59
83120;SHT31;73001;51.784;4.660;2024-03-23T09:41:20;16.31;48.69
83120;SHT31;73001;51.784;4.660;2024-03-23T09:43:45;18.06;46.12
83120;SHT31;73001;51.784;4.660;2024-03-23T09:46:14;19.57;44.38
83120;SHT31;73001;51.784;4.660;2024-03-23T09:48:40;20.54;41.48
83120;SHT31;73001;51.784;4.660;2024-03-23T09:51:06;19.63;41.90
83120;SHT31;73001;51.784;4.660;2024-03-23T09:53:34;18.18;43.76
83120;SHT31;73001;51.784;4.660;2024-03-23T09:56:00;16.92;45.28
83120;SHT31;73001;51.784;4.660;2024-03-23T09:58:25;16.11;47.01
83120;SHT31;73001;51.784;4.660;2024-03-23T10:00:51;15.60;48.43
83120;SHT31;73001;51.784;4.660;2024-03-23T10:03:16;14.85;50.18
83120;SHT31;73001;51.784;4.660;2024-03-23T10:05:42;14.60;51.46
83120;SHT31;73001;51.784;4.660;2024-03-23T10:10:39;14.12;53.47
83120;SHT31;73001;51.784;4.660;2024-03-23T10:13:04;13.86;52.82
83120;SHT31;73001;51.784;4.660;2024-03-23T10:15:29;13.79;51.70
83120;SHT31;73001;51.784;4.660;2024-03-23T10:17:55;13.55;53.11
83120;SHT31;73001;51.784;4.660;2024-03-23T10:20:22;13.38;54.26
83120;SHT31;73001;51.784;4.660;2024-03-23T10:22:49;13.32;54.73
83120;SHT31;73001;51.784;4.660;2024-03-23T10:25:15;13.83;53.83
83120;SHT31;73001;51.784;4.660;2024-03-23T10:27:41;13.73;53.93
83120;SHT31;73001;51.784;4.660;2024-03-23T10:30:14;13.79;53.34
83120;SHT31;73001;51.784;4.660;2024-03-23T10:32:40;13.41;53.79
83120;SHT31;73001;51.784;4.660;2024-03-23T10:35:16;13.35;54.69
83120;SHT31;73001;51.784;4.660;2024-03-23T10:37:42;12.99;56.61
83120;SHT31;73001;51.784;4.660;2024-03-23T10:40:10;12.53;60.03
83120;SHT31;73001;51.784;4.660;2024-03-23T10:42:37;12.09;60.72
83120;SHT31;73001;51.784;4.660;2024-03-23T10:45:04;11.81;62.15
83120;SHT31;73001;51.784;4.660;2024-03-23T10:47:31;11.61;62.84
83120;SHT31;73001;51.784;4.660;2024-03-23T10:49:57;12.91;61.02
83120;SHT31;73001;51.784;4.660;2024-03-23T10:52:23;14.87;56.49
83120;SHT31;73001;51.784;4.660;2024-03-23T10:54:51;16.55;52.26
83120;SHT31;73001;51.784;4.660;2024-03-23T10:57:26;18.04;48.38
83120;SHT31;73001;51.784;4.660;2024-03-23T10:59:53;19.17;48.87
83120;SHT31;73001;51.784;4.660;2024-03-23T11:02:20;19.85;44.05
83120;SHT31;73001;51.784;4.660;2024-03-23T11:04:46;19.42;45.92
83120;SHT31;73001;51.784;4.660;2024-03-23T11:07:33;17.94;48.02
83120;SHT31;73001;51.784;4.660;2024-03-23T11:10:01;17.38;51.53
83120;SHT31;73001;51.784;4.660;2024-03-23T11:12:30;17.68;52.14
83120;SHT31;73001;51.784;4.660;2024-03-23T11:15:01;19.00;49.66
83120;SHT31;73001;51.784;4.660;2024-03-23T11:17:26;19.72;44.61
83120;SHT31;73001;51.784;4.660;2024-03-23T11:20:00;20.54;44.48
83120;SHT31;73001;51.784;4.660;2024-03-23T11:25:22;21.52;39.37
83120;SHT31;73001;51.784;4.660;2024-03-23T11:27:50;21.97;38.49
83120;SHT31;73001;51.784;4.660;2024-03-23T11:30:18;22.49;37.53
83120;SHT31;73001;51.784;4.660;2024-03-23T11:32:45;22.79;37.36
83120;SHT31;73001;51.784;4.660;2024-03-23T11:38:08;22.83;36.74
83120;SHT31;73001;51.784;4.660;2024-03-23T11:40:41;21.13;38.17
83120;SHT31;73001;51.784;4.660;2024-03-23T11:43:16;19.99;38.90
83120;SHT31;73001;51.784;4.660;2024-03-23T11:45:46;18.83;42.67
83120;SHT31;73001;51.784;4.660;2024-03-23T11:50:41;18.12;41.28
83120;SHT31;73001;51.784;4.660;2024-03-23T11:55:48;20.31;39.38
83120;SHT31;73001;51.784;4.660;2024-03-23T11:58:16;19.41;40.17
83120;SHT31;73001;51.784;4.660;2024-03-23T12:00:42;17.99;43.55
83120;SHT31;73001;51.784;4.660;2024-03-23T12:03:08;17.36;45.65
83120;SHT31;73001;51.784;4.660;2024-03-23T12:05:36;17.58;44.84
83120;SHT31;73001;51.784;4.660;2024-03-23T12:10:53;16.44;45.42
83120;SHT31;73001;51.784;4.660;2024-03-23T12:13:22;15.82;46.81
83120;SHT31;73001;51.784;4.660;2024-03-23T12:15:50;15.21;46.65
83120;SHT31;73001;51.784;4.660;2024-03-23T12:18:16;14.63;48.63
83120;SHT31;73001;51.784;4.660;2024-03-23T12:20:42;14.22;49.38
83120;SHT31;73001;51.784;4.660;2024-03-23T12:23:09;13.71;50.48
83120;SHT31;73001;51.784;4.660;2024-03-23T12:25:36;13.42;51.77
83120;SHT31;73001;51.784;4.660;2024-03-23T12:28:02;13.13;52.59
83120;SHT31;73001;51.784;4.660;2024-03-23T12:30:27;12.84;52.90
83120;SHT31;73001;51.784;4.660;2024-03-23T12:32:53;12.64;52.68
83120;SHT31;73001;51.784;4.660;2024-03-23T12:35:18;12.39;52.85
83120;SHT31;73001;51.784;4.660;2024-03-23T12:37:44;12.29;53.67
83120;SHT31;73001;51.784;4.660;2024-03-23T12:40:10;12.02;54.45
83120;SHT31;73001;51.784;4.660;2024-03-23T12:42:35;12.01;54.98
83120;SHT31;73001;51.784;4.660;2024-03-23T12:45:01;12.18;56.54
83120;SHT31;73001;51.784;4.660;2024-03-23T12:47:26;12.53;57.13
83120;SHT31;73001;51.784;4.660;2024-03-23T12:49:52;12.87;56.26
83120;SHT31;73001;51.784;4.660;2024-03-23T12:52:17;13.21;54.14
83120;SHT31;73001;51.784;4.660;2024-03-23T12:54:43;13.47;52.46
83120;SHT31;73001;51.784;4.660;2024-03-23T12:57:08;13.52;50.46
83120;SHT31;73001;51.784;4.660;2024-03-23T12:59:34;13.52;51.03
83120;SHT31;73001;51.784;4.660;2024-03-23T13:02:01;13.48;50.58
83120;SHT31;73001;51.784;4.660;2024-03-23T13:04:26;13.45;51.13
83120;SHT31;73001;51.784;4.660;2024-03-23T13:06:51;13.63;51.60
83120;SHT31;73001;51.784;4.660;2024-03-23T13:09:17;13.69;51.28
83120;SHT31;73001;51.784;4.660;2024-03-23T13:11:42;13.76;51.92
83120;SHT31;73001;51.784;4.660;2024-03-23T13:14:08;13.86;51.65
83120;SHT31;73001;51.784;4.660;2024-03-23T13:16:33;13.98;51.04
83120;SHT31;73001;51.784;4.660;2024-03-23T13:18:59;14.02;50.11
83120;SHT31;73001;51.784;4.660;2024-03-23T13:21:26;13.98;50.32
83120;SHT31;73001;51.784;4.660;2024-03-23T13:23:51;14.02;50.88
83120;SHT31;73001;51.784;4.660;2024-03-23T13:26:17;13.98;51.87
83120;SHT31;73001;51.784;4.660;2024-03-23T13:28:43;13.99;51.21
83120;SHT31;73001;51.784;4.660;2024-03-23T13:31:08;13.85;50.23
83120;SHT31;73001;51.784;4.660;2024-03-23T13:33:34;13.69;49.20
83120;SHT31;73001;51.784;4.660;2024-03-23T13:36:00;13.61;51.08
83120;SHT31;73001;51.784;4.660;2024-03-23T13:38:26;13.68;51.07
83120;SHT31;73001;51.784;4.660;2024-03-23T13:40:57;13.85;51.71
83120;SHT31;73001;51.784;4.660;2024-03-23T13:43:24;14.03;51.52
83120;SHT31;73001;51.784;4.660;2024-03-23T13:45:57;14.02;49.92
83120;SHT31;73001;51.784;4.660;2024-03-23T13:48:25;13.82;49.30
83120;SHT31;73001;51.784;4.660;2024-03-23T13:51:00;13.61;49.13
83120;SHT31;73001;51.784;4.660;2024-03-23T13:53:26;13.28;48.90
83120;SHT31;73001;51.784;4.660;2024-03-23T13:55:51;13.01;48.92
83120;SHT31;73001;51.784;4.660;2024-03-23T13:58:17;12.67;50.42
83120;SHT31;73001;51.784;4.660;2024-03-23T14:00:43;12.48;52.65
83120;SHT31;73001;51.784;4.660;2024-03-23T14:03:09;12.35;53.49
83120;SHT31;73001;51.784;4.660;2024-03-23T14:05:34;12.28;53.76
83120;SHT31;73001;51.784;4.660;2024-03-23T14:08:00;12.17;54.85
83120;SHT31;73001;51.784;4.660;2024-03-23T14:10:26;12.14;54.75
83120;SHT31;73001;51.784;4.660;2024-03-23T14:12:52;12.24;55.55
83120;SHT31;73001;51.784;4.660;2024-03-23T14:15:18;12.08;54.66
83120;SHT31;73001;51.784;4.660;2024-03-23T14:17:43;11.95;52.44
83120;SHT31;73001;51.784;4.660;2024-03-23T14:20:09;11.84;52.88
83120;SHT31;73001;51.784;4.660;2024-03-23T14:22:37;11.74;53.87
83120;SHT31;73001;51.784;4.660;2024-03-23T14:25:02;11.68;55.01
83120;SHT31;73001;51.784;4.660;2024-03-23T14:27:28;11.66;54.50
83120;SHT31;73001;51.784;4.660;2024-03-23T14:29:54;11.67;56.13
83120;SHT31;73001;51.784;4.660;2024-03-23T14:32:19;11.56;54.50
83120;SHT31;73001;51.784;4.660;2024-03-23T14:34:45;11.43;55.27
83120;SHT31;73001;51.784;4.660;2024-03-23T14:37:11;11.40;55.88
83120;SHT31;73001;51.784;4.660;2024-03-23T14:39:37;11.41;56.94
83120;SHT31;73001;51.784;4.660;2024-03-23T14:42:07;11.44;57.59
83120;SHT31;73001;51.784;4.660;2024-03-23T14:44:34;11.43;58.54
83120;SHT31;73001;51.784;4.660;2024-03-23T14:46:59;11.33;58.41
83120;SHT31;73001;51.784;4.660;2024-03-23T14:49:25;11.27;58.84
83120;SHT31;73001;51.784;4.660;2024-03-23T14:51:51;11.16;59.05
83120;SHT31;73001;51.784;4.660;2024-03-23T14:54:16;11.09;59.43
83120;SHT31;73001;51.784;4.660;2024-03-23T14:56:42;11.03;59.81
83120;SHT31;73001;51.784;4.660;2024-03-23T14:59:07;11.08;60.44
83120;SHT31;73001;51.784;4.660;2024-03-23T15:01:34;11.02;59.41
83120;SHT31;73001;51.784;4.660;2024-03-23T15:04:00;10.92;59.63
83120;SHT31;73001;51.784;4.660;2024-03-23T15:06:26;10.75;59.49
83120;SHT31;73001;51.784;4.660;2024-03-23T15:08:51;10.64;59.35
83120;SHT31;73001;51.784;4.660;2024-03-23T15:11:16;10.55;59.96
83120;SHT31;73001;51.784;4.660;2024-03-23T15:13:44;10.54;59.65
83120;SHT31;73001;51.784;4.660;2024-03-23T15:16:10;10.45;59.73
83120;SHT31;73001;51.784;4.660;2024-03-23T15:18:35;10.40;60.27
83120;SHT31;73001;51.784;4.660;2024-03-23T15:21:02;10.59;60.81
83120;SHT31;73001;51.784;4.660;2024-03-23T15:23:30;10.71;60.13
83120;SHT31;73001;51.784;4.660;2024-03-23T15:26:00;10.88;60.04
83120;SHT31;73001;51.784;4.660;2024-03-23T15:28:27;10.95;59.04
83120;SHT31;73001;51.784;4.660;2024-03-23T15:31:07;10.98;58.63
83120;SHT31;73001;51.784;4.660;2024-03-23T15:33:33;10.95;58.53
83120;SHT31;73001;51.784;4.660;2024-03-23T15:36:02;10.99;58.88
83120;SHT31;73001;51.784;4.660;2024-03-23T15:38:28;11.10;58.77
83120;SHT31;73001;51.784;4.660;2024-03-23T15:40:56;11.15;57.64
83120;SHT31;73001;51.784;4.660;2024-03-23T15:43:22;11.13;57.75
83120;SHT31;73001;51.784;4.660;2024-03-23T15:46:00;11.12;58.28
83120;SHT31;73001;51.784;4.660;2024-03-23T15:48:27;11.00;58.06
83120;SHT31;73001;51.784;4.660;2024-03-23T15:50:54;10.92;58.26
83120;SHT31;73001;51.784;4.660;2024-03-23T15:53:20;10.88;59.11
83120;SHT31;73001;51.784;4.660;2024-03-23T15:55:53;10.93;58.88
83120;SHT31;73001;51.784;4.660;2024-03-23T15:58:19;11.00;58.64
83120;SHT31;73001;51.784;4.660;2024-03-23T16:00:53;11.06;58.65
83120;SHT31;73001;51.784;4.660;2024-03-23T16:03:19;11.15;58.37
83120;SHT31;73001;51.784;4.660;2024-03-23T16:05:53;11.20;58.70
83120;SHT31;73001;51.784;4.660;2024-03-23T16:08:18;11.23;58.58
83120;SHT31;73001;51.784;4.660;2024-03-23T16:10:44;11.15;58.38
83120;SHT31;73001;51.784;4.660;2024-03-23T16:13:09;11.13;58.81
83120;SHT31;73001;51.784;4.660;2024-03-23T16:15:35;11.15;59.24
83120;SHT31;73001;51.784;4.660;2024-03-23T16:18:00;11.15;59.18
83120;SHT31;73001;51.784;4.660;2024-03-23T16:20:26;11.12;59.36
83120;SHT31;73001;51.784;4.660;2024-03-23T16:22:51;11.08;59.97
83120;SHT31;73001;51.784;4.660;2024-03-23T16:25:17;11.03;60.77
83120;SHT31;73001;51.784;4.660;2024-03-23T16:27:42;11.10;61.10
83120;SHT31;73001;51.784;4.660;2024-03-23T16:30:08;11.19;61.34
83120;SHT31;73001;51.784;4.660;2024-03-23T16:32:35;11.20;61.27
83120;SHT31;73001;51.784;4.660;2024-03-23T16:35:03;11.22;61.03
83120;SHT31;73001;51.784;4.660;2024-03-23T16:37:29;11.30;61.01
83120;SHT31;73001;51.784;4.660;2024-03-23T16:39:54;11.39;61.05
83120;SHT31;73001;51.784;4.660;2024-03-23T16:42:19;11.49;60.62